Time;durP1;ratioP1;P1;durP2;ratioP2;P2;SDS_P1;SDS_P2;PMS_P1;PMS_P2;Temp;Humidity;BMP_temperature;BMP_pressure;BME280_temperature;BME280_humidity;BME280_pressure;Samples;Min_cycle;Max_cycle;Signal;HPM_P1;HPM_P2
2021/05/06 00:00:16;;;;;;;15.63;2.50;;;5.00;83.20;;;;;;5029409;28;20411;-63
2021/05/06 00:11:02;;;;;;;15.73;2.70;;;5.00;83.30;;;;;;5030536;28;20045;-62
2021/05/06 00:30:15;;;;;;;10.73;2.43;;;5.20;83.20;;;;;;5029584;28;20061;-62
2021/05/06 00:32:44;;;;;;;16.20;3.00;;;5.20;82.80;;;;;;5030329;28;20122;-62
2021/05/06 00:35:10;;;;;;;15.23;2.63;;;5.20;82.70;;;;;;5028146;28;20033;-62
2021/05/06 00:37:45;;;;;;;16.33;2.67;;;5.10;82.50;;;;;;5030238;28;20175;-62
2021/05/06 00:40:14;;;;;;;16.27;2.47;;;5.10;82.60;;;;;;5028542;28;20135;-62
2021/05/06 01:06:23;;;;;;;16.80;2.70;;;4.70;82.80;;;;;;5033939;28;20072;-62
2021/05/06 01:08:56;;;;;;;23.80;2.90;;;4.70;83.00;;;;;;5016535;28;20033;-62
2021/05/06 01:11:40;;;;;;;16.33;2.77;;;4.70;82.90;;;;;;5032500;28;20057;-63
2021/05/06 01:14:09;;;;;;;12.97;2.60;;;4.70;82.90;;;;;;5018372;28;20490;-62
2021/05/06 01:16:36;;;;;;;12.73;2.27;;;4.70;82.80;;;;;;5032597;28;20117;-62
2021/05/06 01:19:02;;;;;;;16.10;2.40;;;4.60;82.90;;;;;;5032562;28;20051;-62
2021/05/06 01:21:28;;;;;;;17.07;2.87;;;4.60;83.00;;;;;;5033351;28;20033;-62
2021/05/06 01:23:55;;;;;;;14.10;2.30;;;4.60;82.90;;;;;;5033259;28;20556;-62
2021/05/06 01:28:56;;;;;;;16.63;2.63;;;4.50;83.00;;;;;;5032123;28;20502;-62
2021/05/06 01:31:25;;;;;;;17.47;3.00;;;4.50;83.20;;;;;;5034070;28;20107;-62
2021/05/06 01:34:00;;;;;;;11.03;2.37;;;4.50;83.20;;;;;;5031247;28;20045;-62
2021/05/06 01:36:30;;;;;;;18.07;2.90;;;4.40;83.30;;;;;;5033843;28;20037;-63
2021/05/06 02:00:21;;;;;;;14.93;2.40;;;4.30;84.00;;;;;;5032896;28;20029;-62
2021/05/06 02:02:51;;;;;;;12.97;2.60;;;4.20;84.00;;;;;;5032629;28;20033;-62
2021/05/06 02:05:22;;;;;;;14.03;2.70;;;4.20;84.10;;;;;;5032943;28;20040;-62
2021/05/06 02:07:49;;;;;;;13.80;2.80;;;4.20;84.20;;;;;;5031752;28;20068;-63
2021/05/06 02:10:22;;;;;;;12.83;2.53;;;4.20;84.50;;;;;;5031276;28;20107;-62
2021/05/06 02:12:49;;;;;;;;;;;4.30;84.80;;;;;;5031487;28;20057;-62
2021/05/06 02:15:19;;;;;;;14.50;2.30;;;4.40;84.70;;;;;;5037417;28;20393;-62
2021/05/06 02:17:46;;;;;;;15.50;2.60;;;4.40;84.70;;;;;;5041008;28;20038;-63
2021/05/06 02:20:12;;;;;;;12.90;2.10;;;4.50;84.60;;;;;;5040529;28;20033;-62
2021/05/06 02:22:38;;;;;;;14.57;2.20;;;4.60;84.70;;;;;;5041600;28;20402;-63
2021/05/06 02:25:08;;;;;;;13.83;2.20;;;4.60;84.50;;;;;;5043348;28;20025;-62
2021/05/06 02:27:34;;;;;;;16.13;2.30;;;4.70;84.40;;;;;;5043964;28;20480;-63
2021/05/06 02:30:00;;;;;;;15.63;2.00;;;4.80;84.20;;;;;;5040526;28;20034;-62
2021/05/06 02:32:28;;;;;;;12.33;1.93;;;4.80;83.80;;;;;;5040918;28;20494;-62
2021/05/06 02:34:55;;;;;;;16.27;2.20;;;4.70;83.50;;;;;;5042357;28;20386;-62
2021/05/06 02:37:21;;;;;;;15.40;2.60;;;4.60;83.80;;;;;;5044485;28;20047;-62
2021/05/06 02:39:47;;;;;;;16.80;2.30;;;4.60;83.70;;;;;;5043550;28;20047;-62
2021/05/06 02:42:13;;;;;;;12.33;2.50;;;4.60;83.60;;;;;;5040648;28;20103;-63
2021/05/06 02:44:40;;;;;;;12.27;2.20;;;4.60;83.90;;;;;;5039967;28;20410;-62
2021/05/06 02:47:06;;;;;;;12.37;2.23;;;4.60;84.10;;;;;;5043016;28;20084;-62
2021/05/06 02:49:32;;;;;;;15.33;2.43;;;4.60;84.00;;;;;;5043744;28;20541;-63
2021/05/06 02:52:07;;;;;;;14.23;2.37;;;4.60;84.00;;;;;;5042561;28;20060;-63
2021/05/06 02:54:39;;;;;;;13.60;2.17;;;4.70;84.00;;;;;;5043120;28;20033;-62
2021/05/06 02:57:22;;;;;;;12.97;2.00;;;4.70;83.90;;;;;;5043895;28;20044;-62
2021/05/06 03:02:50;;;;;;;11.47;2.33;;;4.70;83.60;;;;;;5042807;28;20056;-62
2021/05/06 03:05:22;;;;;;;14.73;2.57;;;4.70;83.20;;;;;;5043117;28;20040;-62
2021/05/06 03:08:33;;;;;;;13.13;2.37;;;4.60;82.90;;;;;;5043681;28;20041;-63
2021/05/06 03:11:07;;;;;;;16.07;2.60;;;4.50;82.90;;;;;;5039699;28;20061;-62
2021/05/06 03:24:31;;;;;;;16.17;2.33;;;4.20;83.90;;;;;;5042083;28;20036;-62
2021/05/06 03:26:57;;;;;;;13.00;2.50;;;4.30;84.00;;;;;;5041776;28;20242;-62
2021/05/06 03:29:29;;;;;;;15.17;2.37;;;4.30;83.80;;;;;;5039290;28;20494;-63
2021/05/06 03:34:51;;;;;;;16.67;2.50;;;4.20;83.60;;;;;;5041467;28;20117;-63
2021/05/06 03:50:40;;;;;;;11.50;2.27;;;4.10;84.30;;;;;;5039453;28;20055;-63
2021/05/06 04:16:55;;;;;;;11.63;2.00;;;4.30;84.00;;;;;;5049767;28;20037;-68
2021/05/06 04:37:49;;;;;;;18.77;2.90;;;4.50;83.60;;;;;;5050412;28;20041;-68
2021/05/06 04:40:39;;;;;;;13.00;2.30;;;4.60;83.60;;;;;;5054121;28;20029;-69
2021/05/06 04:56:38;;;;;;;10.93;2.07;;;5.00;83.50;;;;;;5054634;28;20045;-69
2021/05/06 05:04:34;;;;;;;8.43;1.80;;;5.50;83.40;;;;;;5052488;28;20037;-67
2021/05/06 05:07:14;;;;;;;12.77;2.10;;;5.70;83.10;;;;;;5052664;28;20052;-68
2021/05/06 05:20:46;;;;;;;12.47;2.57;;;7.00;82.10;;;;;;5043044;28;20037;-68
2021/05/06 05:23:38;;;;;;;12.73;2.00;;;7.20;81.20;;;;;;5029156;28;20053;-68
2021/05/06 05:26:07;;;;;;;9.07;1.70;;;7.40;80.90;;;;;;5021378;28;20047;-67
2021/05/06 05:28:32;;;;;;;10.70;2.27;;;7.60;80.30;;;;;;5038342;28;20044;-68
2021/05/06 05:30:58;;;;;;;7.67;1.80;;;8.10;80.50;;;;;;5051010;28;20525;-68
2021/05/06 05:33:25;;;;;;;8.80;1.73;;;8.50;80.80;;;;;;5035017;28;20053;-68
2021/05/06 05:38:44;;;;;;;8.82;1.40;;;10.00;83.20;;;;;;5050971;28;20044;-69
2021/05/06 05:44:25;;;;;;;6.57;1.50;;;11.40;77.30;;;;;;5032856;28;20041;-69
2021/05/06 05:54:48;;;;;;;8.85;1.90;;;13.00;68.70;;;;;;5032081;28;20037;-68
2021/05/06 05:57:14;;;;;;;7.88;2.15;;;13.30;70.40;;;;;;5032989;28;20029;-69
2021/05/06 05:59:40;;;;;;;11.10;1.90;;;14.20;71.20;;;;;;5033211;28;20041;-69
2021/05/06 06:02:06;;;;;;;7.75;1.95;;;15.10;69.90;;;;;;5032682;28;20033;-70
2021/05/06 06:04:32;;;;;;;7.20;1.55;;;15.70;63.70;;;;;;5032566;28;20498;-70
2021/05/06 06:06:58;;;;;;;9.52;1.90;;;15.40;59.60;;;;;;5016419;28;20049;-70
2021/05/06 06:09:24;;;;;;;8.60;1.80;;;14.60;57.80;;;;;;5012950;28;20034;-68
2021/05/06 06:11:49;;;;;;;7.93;1.85;;;13.90;58.00;;;;;;5013120;28;20053;-69
2021/05/06 06:14:46;;;;;;;8.60;2.08;;;13.70;60.10;;;;;;5011776;28;20079;-69
2021/05/06 06:17:12;;;;;;;8.50;1.80;;;13.80;60.20;;;;;;5011898;28;20481;-68
2021/05/06 06:19:40;;;;;;;12.25;2.05;;;13.90;58.70;;;;;;5011285;28;20045;-70
2021/05/06 06:22:09;;;;;;;9.75;2.05;;;14.50;59.90;;;;;;5027782;28;20034;-67
2021/05/06 06:24:35;;;;;;;6.45;1.80;;;15.10;59.50;;;;;;5011742;28;20053;-70
2021/05/06 06:27:01;;;;;;;8.35;2.00;;;15.90;56.90;;;;;;5027524;28;20038;-69
2021/05/06 06:29:30;;;;;;;10.80;1.67;;;15.70;55.00;;;;;;5012648;28;20038;-69
2021/05/06 06:31:57;;;;;;;10.02;2.08;;;15.20;52.90;;;;;;5030680;28;20304;-70
2021/05/06 06:34:23;;;;;;;8.40;1.90;;;14.40;51.50;;;;;;5031874;28;20029;-71
2021/05/06 06:36:48;;;;;;;10.45;2.10;;;13.40;52.90;;;;;;5032111;28;20463;-68
2021/05/06 06:39:16;;;;;;;9.23;1.80;;;12.90;54.10;;;;;;5032341;28;20036;-67
2021/05/06 06:41:42;;;;;;;10.65;2.22;;;12.20;53.50;;;;;;5031207;28;20407;-69
2021/05/06 06:44:08;;;;;;;9.20;2.00;;;11.50;53.90;;;;;;5028514;28;20030;-68
2021/05/06 06:46:35;;;;;;;9.50;2.05;;;10.80;54.80;;;;;;5030947;28;20033;-70
2021/05/06 06:49:01;;;;;;;12.75;2.85;;;10.30;56.30;;;;;;5031581;28;20288;-68
2021/05/06 06:51:27;;;;;;;11.35;2.33;;;9.90;57.10;;;;;;5030893;28;20446;-69
2021/05/06 06:53:53;;;;;;;10.05;2.00;;;10.10;59.90;;;;;;5031385;28;20045;-69
2021/05/06 06:56:20;;;;;;;10.90;2.22;;;11.40;63.40;;;;;;5031769;28;20129;-67
2021/05/06 06:58:49;;;;;;;8.43;2.03;;;12.50;60.20;;;;;;5031995;28;20041;-69
2021/05/06 07:01:16;;;;;;;12.05;2.70;;;13.00;56.80;;;;;;5046448;28;20034;-69
2021/05/06 07:03:43;;;;;;;10.57;2.55;;;13.00;56.00;;;;;;5031578;28;20567;-71
2021/05/06 07:06:09;;;;;;;15.30;2.15;;;13.20;55.70;;;;;;5030700;28;20033;-68
2021/05/06 07:08:38;;;;;;;10.35;1.85;;;13.70;56.50;;;;;;5031909;28;20087;-67
2021/05/06 07:11:05;;;;;;;6.72;1.80;;;14.70;57.20;;;;;;5030406;28;20038;-69
2021/05/06 07:13:32;;;;;;;9.90;1.80;;;15.60;53.00;;;;;;5011520;28;20096;-69
2021/05/06 07:16:01;;;;;;;13.48;2.00;;;16.30;54.20;;;;;;5026986;28;20056;-68
2021/05/06 07:18:28;;;;;;;8.80;1.90;;;18.10;55.00;;;;;;5011763;28;20041;-70
2021/05/06 07:20:55;;;;;;;8.05;1.80;;;19.40;50.90;;;;;;5009975;28;20045;-70
2021/05/06 07:23:22;;;;;;;9.90;2.20;;;20.70;49.10;;;;;;5010796;28;20161;-69
2021/05/06 07:25:51;;;;;;;6.07;1.63;;;21.50;44.40;;;;;;5011397;28;20540;-69
2021/05/06 07:28:19;;;;;;;9.75;2.15;;;21.30;42.50;;;;;;5026943;28;20402;-70
2021/05/06 07:30:48;;;;;;;8.27;2.20;;;21.20;43.10;;;;;;5011015;28;20034;-68
2021/05/06 07:33:15;;;;;;;9.15;1.95;;;22.10;42.40;;;;;;5010910;28;20037;-71
2021/05/06 07:35:41;;;;;;;7.75;1.70;;;21.30;37.70;;;;;;5011559;28;20411;-69
2021/05/06 07:38:08;;;;;;;8.48;2.13;;;20.30;39.20;;;;;;5026126;28;20092;-71
2021/05/06 07:40:36;;;;;;;11.10;2.63;;;20.00;39.80;;;;;;5026327;28;20491;-69
2021/05/06 07:43:03;;;;;;;10.50;2.10;;;20.80;41.30;;;;;;5010428;28;20125;-69
2021/05/06 07:45:32;;;;;;;9.98;1.80;;;22.20;40.30;;;;;;5011705;28;20465;-71
2021/05/06 07:47:59;;;;;;;8.00;2.13;;;23.50;38.70;;;;;;5026444;28;20506;-70
2021/05/06 07:50:26;;;;;;;8.45;1.80;;;24.60;36.80;;;;;;5010653;28;20030;-70
2021/05/06 07:52:55;;;;;;;8.23;1.98;;;25.10;35.10;;;;;;5025577;28;20045;-72
2021/05/06 07:55:21;;;;;;;9.45;2.00;;;25.30;33.00;;;;;;5010802;28;20042;-70
2021/05/06 07:57:47;;;;;;;10.05;1.83;;;24.10;31.20;;;;;;5011308;28;20128;-71
2021/05/06 08:00:19;;;;;;;10.45;2.25;;;22.00;31.00;;;;;;5011199;28;20104;-69
2021/05/06 08:02:47;;;;;;;11.13;2.10;;;19.80;32.70;;;;;;5025702;28;20053;-70
2021/05/06 08:05:13;;;;;;;8.02;1.95;;;18.30;34.60;;;;;;5011097;28;20034;-70
2021/05/06 08:07:39;;;;;;;9.13;2.03;;;17.20;35.50;;;;;;5010690;28;20521;-71
2021/05/06 08:10:06;;;;;;;10.85;2.03;;;16.70;37.30;;;;;;5011366;28;20178;-70
2021/05/06 08:12:32;;;;;;;8.00;1.80;;;16.10;37.20;;;;;;5010184;28;20092;-71
2021/05/06 08:14:58;;;;;;;7.93;1.75;;;15.40;38.50;;;;;;5013771;28;20030;-70
2021/05/06 08:17:24;;;;;;;8.02;1.80;;;15.90;41.10;;;;;;5015355;28;20111;-71
2021/05/06 08:19:50;;;;;;;9.13;2.30;;;17.10;41.60;;;;;;5014498;28;20038;-70
2021/05/06 08:22:17;;;;;;;8.88;1.98;;;19.60;42.20;;;;;;5030297;28;20065;-71
2021/05/06 08:24:44;;;;;;;8.50;1.90;;;22.30;39.60;;;;;;5014517;28;20375;-71
2021/05/06 08:27:10;;;;;;;6.32;1.70;;;22.60;33.50;;;;;;5030038;28;20513;-71
2021/05/06 08:29:36;;;;;;;6.32;1.42;;;23.40;34.30;;;;;;5030126;28;20040;-71
2021/05/06 08:32:03;;;;;;;7.63;1.90;;;24.60;32.80;;;;;;5014654;28;20468;-71
2021/05/06 08:34:29;;;;;;;8.68;1.67;;;25.40;31.00;;;;;;5029731;28;20564;-71
2021/05/06 08:36:55;;;;;;;5.95;1.42;;;26.30;30.90;;;;;;5014938;28;20034;-72
2021/05/06 08:39:21;;;;;;;9.48;2.00;;;26.50;28.50;;;;;;5029490;28;20406;-71
2021/05/06 08:41:47;;;;;;;6.20;1.70;;;25.80;27.90;;;;;;5014678;28;20452;-72
2021/05/06 08:44:17;;;;;;;8.40;1.67;;;26.50;28.60;;;;;;5028958;28;20121;-71
2021/05/06 08:47:02;;;;;;;5.22;1.45;;;26.20;27.80;;;;;;5013476;28;20044;-70
2021/05/06 08:49:28;;;;;;;4.47;1.30;;;26.60;27.10;;;;;;5014086;28;20109;-72
2021/05/06 08:51:53;;;;;;;7.20;1.65;;;26.10;27.10;;;;;;5014577;28;20026;-71
2021/05/06 08:54:20;;;;;;;7.47;1.42;;;26.00;26.70;;;;;;5014500;28;20030;-72
2021/05/06 08:56:46;;;;;;;6.60;1.50;;;24.20;25.70;;;;;;5014213;28;20041;-69
2021/05/06 08:59:12;;;;;;;6.70;1.85;;;21.70;26.50;;;;;;5014549;28;20402;-70
2021/05/06 09:01:38;;;;;;;9.55;2.80;;;21.00;29.40;;;;;;5013873;28;20041;-71
2021/05/06 09:04:04;;;;;;;6.00;1.52;;;23.20;30.40;;;;;;5029023;28;20040;-71
2021/05/06 09:06:30;;;;;;;5.70;1.38;;;25.90;29.70;;;;;;5014376;28;20038;-71
2021/05/06 09:09:02;;;;;;;5.78;1.60;;;28.40;28.10;;;;;;5012806;28;20406;-72
2021/05/06 09:11:29;;;;;;;6.57;1.40;;;30.30;26.60;;;;;;5014237;28;20065;-71
2021/05/06 09:14:05;;;;;;;7.13;1.58;;;31.10;25.30;;;;;;5013026;28;20529;-71
2021/05/06 09:16:42;;;;;;;6.55;1.50;;;31.00;24.30;;;;;;5014173;28;20391;-73
2021/05/06 09:19:13;;;;;;;6.05;1.17;;;30.10;23.20;;;;;;5013440;28;20057;-72
2021/05/06 09:21:43;;;;;;;6.55;1.40;;;27.50;22.60;;;;;;5029242;28;20050;-71
2021/05/06 09:24:19;;;;;;;7.87;1.83;;;24.50;23.50;;;;;;5012769;28;20095;-71
2021/05/06 09:26:45;;;;;;;6.97;1.80;;;24.30;25.90;;;;;;5014097;28;20340;-70
2021/05/06 09:29:27;;;;;;;7.03;1.73;;;25.40;26.10;;;;;;5013457;28;20033;-71
2021/05/06 09:31:52;;;;;;;5.60;1.60;;;26.80;24.80;;;;;;5013918;28;20041;-71
2021/05/06 09:34:18;;;;;;;6.60;1.73;;;27.30;23.90;;;;;;5012827;28;20030;-70
2021/05/06 09:36:44;;;;;;;6.80;1.48;;;27.00;23.80;;;;;;5013616;28;20403;-70
2021/05/06 09:39:10;;;;;;;5.78;1.30;;;27.40;24.40;;;;;;5013656;28;20033;-72
2021/05/06 09:41:37;;;;;;;5.47;1.33;;;27.00;23.70;;;;;;5012242;28;20084;-71
2021/05/06 09:44:16;;;;;;;7.45;1.33;;;25.10;23.10;;;;;;5013177;28;20034;-72
2021/05/06 09:46:56;;;;;;;6.93;1.50;;;24.10;25.20;;;;;;5027107;28;20030;-72
2021/05/06 09:49:23;;;;;;;7.00;1.40;;;24.50;25.50;;;;;;5013458;28;20092;-70
2021/05/06 09:52:00;;;;;;;6.85;1.48;;;24.60;24.90;;;;;;5012971;28;20061;-70
2021/05/06 09:54:31;;;;;;;6.80;1.60;;;23.50;24.20;;;;;;5013078;28;20034;-71
2021/05/06 09:57:02;;;;;;;5.63;1.55;;;22.10;25.20;;;;;;5012767;28;20030;-70
2021/05/06 09:59:31;;;;;;;6.32;1.58;;;22.80;26.70;;;;;;5028580;28;20064;-70
2021/05/06 10:02:08;;;;;;;5.50;1.30;;;25.60;27.00;;;;;;5012865;28;20468;-70
2021/05/06 10:04:35;;;;;;;5.40;1.40;;;28.50;25.20;;;;;;5012938;28;20085;-72
2021/05/06 10:07:14;;;;;;;4.60;1.38;;;29.50;23.20;;;;;;5013024;28;20399;-72
2021/05/06 10:10:01;;;;;;;6.35;1.23;;;29.90;22.50;;;;;;5013192;28;20126;-72
2021/05/06 10:12:38;;;;;;;6.15;1.40;;;30.40;22.80;;;;;;5016021;28;20061;-71
2021/05/06 10:15:09;;;;;;;7.38;1.30;;;32.00;22.60;;;;;;5031850;28;20481;-72
2021/05/06 10:17:37;;;;;;;4.70;1.20;;;30.90;20.80;;;;;;5033005;28;20033;-72
2021/05/06 10:20:04;;;;;;;4.97;1.30;;;27.40;20.20;;;;;;5032572;28;20029;-71
2021/05/06 10:22:30;;;;;;;7.32;1.58;;;23.30;21.60;;;;;;5047667;28;20037;-70
2021/05/06 10:25:01;;;;;;;7.47;2.00;;;19.80;24.00;;;;;;5032173;28;20096;-71
2021/05/06 10:27:27;;;;;;;7.05;2.13;;;17.80;27.10;;;;;;5032332;28;20530;-70
2021/05/06 10:29:57;;;;;;;6.95;2.25;;;16.80;28.10;;;;;;5032488;28;20075;-70
2021/05/06 10:32:28;;;;;;;7.90;2.17;;;15.80;29.30;;;;;;5032887;28;20160;-70
2021/05/06 10:34:55;;;;;;;4.82;1.10;;;14.80;30.50;;;;;;5012183;28;20331;-70
2021/05/06 10:37:27;;;;;;;4.63;1.23;;;13.90;31.90;;;;;;5011980;28;20049;-70
2021/05/06 10:39:54;;;;;;;5.07;1.35;;;13.80;34.80;;;;;;5011091;28;20037;-71
2021/05/06 10:42:28;;;;;;;3.20;0.90;;;16.80;36.10;;;;;;5012594;28;20033;-71
2021/05/06 10:44:55;;;;;;;5.68;1.30;;;21.70;33.60;;;;;;4993857;28;20037;-71
2021/05/06 10:47:46;;;;;;;5.57;1.08;;;26.00;30.00;;;;;;5012558;28;20037;-72
2021/05/06 10:50:17;;;;;;;4.90;1.30;;;28.70;27.20;;;;;;5047486;28;20044;-71
2021/05/06 10:52:45;;;;;;;7.82;1.48;;;27.40;24.80;;;;;;5032188;28;20045;-71
2021/05/06 10:55:12;;;;;;;6.32;1.15;;;25.70;24.20;;;;;;5031221;28;20040;-71
2021/05/06 10:57:39;;;;;;;5.75;1.50;;;23.70;24.30;;;;;;5031973;28;20057;-72
2021/05/06 11:00:25;;;;;;;5.32;1.27;;;23.40;26.50;;;;;;5031606;28;20038;-70
2021/05/06 11:02:54;;;;;;;7.47;1.55;;;24.20;26.50;;;;;;5031570;28;20064;-72
2021/05/06 11:05:27;;;;;;;6.20;1.30;;;24.70;25.50;;;;;;5031146;28;20037;-71
2021/05/06 11:08:05;;;;;;;5.85;1.30;;;26.70;25.90;;;;;;5031835;28;20037;-71
2021/05/06 11:10:51;;;;;;;5.55;1.30;;;26.30;23.90;;;;;;5031424;28;20402;-70
2021/05/06 11:13:22;;;;;;;5.28;1.33;;;25.10;24.10;;;;;;5030809;28;20052;-71
2021/05/06 11:15:49;;;;;;;4.55;1.13;;;23.40;23.70;;;;;;5031157;28;20037;-70
2021/05/06 11:18:43;;;;;;;7.38;1.50;;;21.50;24.50;;;;;;5031895;28;20044;-71
2021/05/06 11:21:30;;;;;;;6.30;1.45;;;19.50;25.80;;;;;;5030837;28;20128;-71
2021/05/06 11:24:17;;;;;;;6.57;1.88;;;17.80;27.00;;;;;;5031183;28;20654;-71
2021/05/06 11:27:12;;;;;;;7.93;1.50;;;15.80;29.50;;;;;;5015470;28;20471;-70
2021/05/06 11:29:40;;;;;;;7.72;1.67;;;14.50;31.60;;;;;;5031210;28;20048;-71
2021/05/06 11:32:21;;;;;;;9.13;2.08;;;13.60;33.00;;;;;;5031600;28;20033;-68
2021/05/06 11:34:50;;;;;;;8.68;1.45;;;13.40;36.00;;;;;;5030571;28;20117;-70
2021/05/06 11:37:19;;;;;;;7.53;1.70;;;16.40;40.40;;;;;;5015613;28;20030;-70
2021/05/06 11:39:50;;;;;;;5.97;1.27;;;21.40;38.90;;;;;;5011065;28;20112;-70
2021/05/06 11:42:17;;;;;;;7.30;1.50;;;25.30;34.30;;;;;;5011442;28;20398;-71
2021/05/06 11:45:07;;;;;;;5.18;1.27;;;28.40;30.70;;;;;;5013702;28;20468;-70
2021/05/06 11:47:32;;;;;;;6.07;1.33;;;27.80;27.40;;;;;;5049232;28;20033;-70
2021/05/06 11:49:58;;;;;;;7.70;1.70;;;25.60;26.00;;;;;;5036009;28;20406;-70
2021/05/06 11:52:33;;;;;;;4.43;1.10;;;23.30;27.00;;;;;;5029373;28;20500;-68
2021/05/06 11:54:59;;;;;;;5.57;1.48;;;22.70;29.10;;;;;;5030528;28;20033;-67
2021/05/06 11:57:26;;;;;;;4.43;1.20;;;23.00;28.80;;;;;;5031071;28;20041;-66
2021/05/06 11:59:52;;;;;;;5.22;1.23;;;24.20;28.40;;;;;;5044251;28;20047;-69
2021/05/06 12:02:24;;;;;;;6.03;1.27;;;25.90;28.30;;;;;;5050881;28;20037;-67
2021/05/06 12:04:53;;;;;;;5.78;1.33;;;27.20;27.20;;;;;;5049132;28;20125;-67
2021/05/06 12:07:21;;;;;;;7.75;1.45;;;27.70;26.10;;;;;;5050204;28;20179;-66
2021/05/06 12:09:49;;;;;;;6.32;1.42;;;26.90;24.00;;;;;;5049604;28;20048;-66
2021/05/06 12:12:29;;;;;;;6.63;1.40;;;24.50;23.50;;;;;;5050317;28;20603;-65
2021/05/06 12:14:58;;;;;;;4.32;1.40;;;21.60;25.00;;;;;;5049650;28;20086;-65
2021/05/06 12:17:25;;;;;;;3.08;1.00;;;19.50;26.50;;;;;;5046267;28;20029;-66
2021/05/06 12:19:51;;;;;;;3.85;1.20;;;18.30;27.90;;;;;;5038758;28;20065;-66
2021/05/06 12:22:18;;;;;;;4.85;1.00;;;17.60;28.30;;;;;;5041957;28;20489;-65
2021/05/06 12:24:49;;;;;;;4.07;1.08;;;16.50;28.40;;;;;;5040758;28;20025;-65
2021/05/06 12:27:17;;;;;;;5.72;1.20;;;15.50;29.50;;;;;;5040943;28;20032;-64
2021/05/06 12:29:44;;;;;;;6.03;1.58;;;15.00;30.20;;;;;;5039195;28;20048;-66
2021/05/06 12:32:30;;;;;;;6.20;1.40;;;14.60;31.00;;;;;;5038604;28;20037;-65
2021/05/06 12:34:56;;;;;;;5.47;1.25;;;14.10;32.50;;;;;;5031489;28;20053;-67
2021/05/06 12:37:34;;;;;;;8.18;1.50;;;14.10;34.00;;;;;;5051102;28;20039;-66
2021/05/06 12:40:01;;;;;;;6.90;1.52;;;14.40;34.30;;;;;;5038907;28;20068;-66
2021/05/06 12:42:32;;;;;;;8.82;1.50;;;15.10;34.70;;;;;;5037990;28;20038;-65
2021/05/06 12:44:59;;;;;;;6.60;1.50;;;16.40;35.00;;;;;;5038786;28;20033;-65
2021/05/06 12:47:28;;;;;;;4.85;1.10;;;17.70;34.10;;;;;;5040881;28;20037;-65
2021/05/06 12:50:14;;;;;;;5.55;1.23;;;18.60;32.10;;;;;;5038812;28;20053;-65
2021/05/06 12:52:40;;;;;;;3.95;1.10;;;19.20;30.80;;;;;;5039222;28;20065;-65
2021/05/06 12:55:28;;;;;;;4.32;1.10;;;19.60;30.20;;;;;;5040015;28;20122;-65
2021/05/06 12:58:24;;;;;;;5.82;1.27;;;20.00;30.00;;;;;;5039930;28;20382;-65
2021/05/06 13:00:56;;;;;;;5.43;1.42;;;20.50;29.50;;;;;;5041182;28;20068;-64
2021/05/06 13:03:42;;;;;;;6.28;1.13;;;20.70;28.40;;;;;;5044367;28;20049;-65
2021/05/06 13:06:18;;;;;;;8.02;1.65;;;20.20;28.30;;;;;;5042249;28;20037;-65
2021/05/06 13:08:46;;;;;;;6.45;1.60;;;19.30;28.20;;;;;;5047507;28;20461;-65
2021/05/06 13:11:21;;;;;;;5.80;1.35;;;18.40;28.90;;;;;;5053574;28;20401;-64
2021/05/06 13:13:52;;;;;;;4.82;1.50;;;17.60;29.80;;;;;;5053209;28;20033;-64
2021/05/06 13:16:40;;;;;;;7.03;1.30;;;16.90;30.70;;;;;;5053778;28;20135;-64
2021/05/06 13:19:11;;;;;;;7.32;1.50;;;16.10;32.60;;;;;;5054136;28;20029;-64
2021/05/06 13:22:03;;;;;;;7.15;1.63;;;15.50;33.00;;;;;;5053742;28;20037;-64
2021/05/06 13:24:43;;;;;;;7.60;1.45;;;15.20;34.10;;;;;;5053049;28;20033;-64
2021/05/06 13:27:23;;;;;;;8.37;1.83;;;15.40;34.70;;;;;;5053119;28;20037;-66
2021/05/06 13:29:59;;;;;;;6.97;1.30;;;15.40;34.80;;;;;;5055788;28;20271;-65
2021/05/06 13:32:51;;;;;;;8.18;1.40;;;15.60;35.40;;;;;;5033866;28;20042;-65
2021/05/06 13:35:17;;;;;;;9.13;1.50;;;15.60;35.20;;;;;;5038403;28;20040;-65
2021/05/06 13:37:46;;;;;;;4.90;1.25;;;15.70;35.40;;;;;;5042233;28;20087;-65
2021/05/06 13:40:13;;;;;;;5.72;1.13;;;15.60;35.40;;;;;;5042537;28;20065;-64
2021/05/06 13:42:39;;;;;;;5.25;1.17;;;15.50;35.20;;;;;;5045554;28;20033;-66
2021/05/06 13:45:09;;;;;;;4.20;1.00;;;15.30;35.40;;;;;;5044671;28;20040;-65
2021/05/06 13:47:34;;;;;;;6.15;1.40;;;15.10;35.50;;;;;;5044470;28;20042;-65
2021/05/06 13:50:00;;;;;;;5.18;1.15;;;14.90;35.50;;;;;;5044456;28;20075;-66
2021/05/06 13:52:27;;;;;;;6.05;1.30;;;14.80;35.30;;;;;;5043913;28;20409;-65
2021/05/06 13:54:54;;;;;;;8.30;1.40;;;14.60;35.40;;;;;;5039456;28;20410;-66
2021/05/06 13:57:19;;;;;;;4.43;1.50;;;14.50;35.80;;;;;;5041324;28;20108;-65
2021/05/06 13:59:46;;;;;;;5.95;1.40;;;14.30;36.30;;;;;;5040862;28;20136;-65
2021/05/06 14:02:15;;;;;;;6.00;1.63;;;14.20;36.70;;;;;;5043469;28;20508;-65
2021/05/06 14:04:41;;;;;;;6.25;1.15;;;14.20;37.00;;;;;;5042910;28;20067;-65
2021/05/06 14:07:07;;;;;;;7.88;2.70;;;14.00;37.20;;;;;;5043042;28;20034;-66
2021/05/06 14:09:33;;;;;;;5.30;1.30;;;14.00;37.60;;;;;;5041412;28;20417;-66
2021/05/06 14:11:58;;;;;;;7.82;1.48;;;13.90;37.90;;;;;;5041493;28;20680;-64
2021/05/06 14:14:24;;;;;;;8.50;1.35;;;13.90;38.10;;;;;;5042771;28;20036;-65
2021/05/06 14:16:50;;;;;;;8.93;1.35;;;13.90;38.00;;;;;;5044792;28;20112;-65
2021/05/06 14:19:17;;;;;;;5.50;1.30;;;14.10;38.60;;;;;;5040473;28;20513;-67
2021/05/06 14:21:48;;;;;;;7.38;1.38;;;14.60;38.60;;;;;;5040565;28;20037;-67
2021/05/06 14:24:15;;;;;;;6.57;1.45;;;14.90;38.20;;;;;;5041692;28;20116;-65
2021/05/06 14:26:43;;;;;;;8.30;1.35;;;15.00;37.30;;;;;;5043699;28;20382;-65
2021/05/06 14:29:08;;;;;;;5.72;1.08;;;14.80;36.90;;;;;;5043761;28;20027;-67
2021/05/06 14:31:34;;;;;;;5.80;1.13;;;14.50;37.40;;;;;;5040138;28;20116;-66
2021/05/06 14:34:00;;;;;;;6.78;1.35;;;14.50;38.00;;;;;;5039958;28;20442;-67
2021/05/06 14:36:26;;;;;;;7.47;1.23;;;14.60;38.50;;;;;;5042791;28;20041;-69
2021/05/06 14:38:54;;;;;;;5.18;1.08;;;14.60;38.10;;;;;;5044505;28;20044;-65
2021/05/06 14:41:20;;;;;;;7.95;1.27;;;14.40;37.90;;;;;;5042578;28;20052;-65
2021/05/06 14:43:46;;;;;;;5.75;1.58;;;14.20;38.20;;;;;;5039936;28;20021;-65
2021/05/06 14:46:12;;;;;;;5.82;1.30;;;13.90;38.00;;;;;;5039458;28;20045;-65
2021/05/06 14:48:38;;;;;;;5.65;1.40;;;13.70;38.70;;;;;;5042262;28;20052;-65
2021/05/06 14:51:04;;;;;;;9.70;1.52;;;13.50;39.00;;;;;;5044561;28;20448;-65
2021/05/06 14:53:30;;;;;;;7.95;1.20;;;13.50;39.20;;;;;;5043422;28;20068;-67
2021/05/06 14:55:58;;;;;;;6.70;1.27;;;13.50;39.30;;;;;;5040185;28;20398;-65
2021/05/06 14:58:28;;;;;;;7.80;1.52;;;13.50;39.50;;;;;;5041703;28;20120;-65
2021/05/06 15:00:54;;;;;;;4.78;1.20;;;13.50;39.30;;;;;;5041003;28;20076;-65
2021/05/06 15:03:20;;;;;;;9.05;1.70;;;13.60;39.70;;;;;;5043224;28;20525;-67
2021/05/06 15:05:46;;;;;;;7.45;1.45;;;13.70;39.80;;;;;;5042479;28;20124;-67
2021/05/06 15:08:12;;;;;;;11.18;3.35;;;13.90;39.80;;;;;;5041408;28;20125;-67
2021/05/06 15:10:37;;;;;;;8.13;2.05;;;14.10;39.50;;;;;;5038931;28;20054;-66
2021/05/06 15:13:03;;;;;;;11.07;4.00;;;14.00;39.20;;;;;;5047667;28;20067;-66
2021/05/06 15:15:29;;;;;;;8.70;2.78;;;13.90;38.80;;;;;;5050435;28;20124;-68
2021/05/06 15:17:57;;;;;;;8.25;2.33;;;13.90;39.00;;;;;;5051845;28;20057;-67
2021/05/06 15:20:24;;;;;;;7.70;3.05;;;13.90;39.50;;;;;;5051065;28;20132;-66
2021/05/06 15:22:50;;;;;;;13.00;5.60;;;13.90;39.30;;;;;;5050684;28;20044;-66
2021/05/06 15:25:16;;;;;;;10.45;5.00;;;13.80;39.50;;;;;;5050930;28;20087;-65
2021/05/06 15:27:42;;;;;;;9.73;3.60;;;13.70;39.80;;;;;;5050418;28;20032;-66
2021/05/06 15:30:10;;;;;;;8.98;2.10;;;13.80;40.20;;;;;;5051533;28;20063;-65
2021/05/06 15:32:35;;;;;;;6.07;1.50;;;13.80;40.50;;;;;;5049759;28;20044;-67
2021/05/06 15:35:02;;;;;;;7.78;2.00;;;13.70;39.50;;;;;;5050927;28;20120;-67
2021/05/06 15:37:28;;;;;;;8.30;2.10;;;13.50;39.70;;;;;;5050978;28;20045;-66
2021/05/06 15:39:54;;;;;;;5.10;1.40;;;13.40;39.50;;;;;;5051735;28;20044;-66
2021/05/06 15:42:20;;;;;;;8.57;1.80;;;13.20;39.60;;;;;;5051700;28;20071;-66
2021/05/06 15:44:46;;;;;;;6.13;1.27;;;13.00;39.90;;;;;;5050799;28;20617;-66
2021/05/06 15:47:11;;;;;;;6.57;1.58;;;12.90;40.10;;;;;;5051363;28;20404;-65
2021/05/06 15:49:39;;;;;;;6.05;1.40;;;12.80;40.00;;;;;;5051537;28;20497;-66
2021/05/06 15:52:09;;;;;;;9.23;1.40;;;12.70;40.30;;;;;;5050747;28;20124;-66
2021/05/06 15:54:36;;;;;;;7.85;2.03;;;12.60;40.30;;;;;;5050730;28;20033;-66
2021/05/06 15:57:03;;;;;;;6.93;2.33;;;12.60;40.60;;;;;;5049569;28;20481;-66
2021/05/06 15:59:29;;;;;;;4.65;1.30;;;12.50;40.80;;;;;;5051083;28;20389;-65
2021/05/06 16:01:55;;;;;;;5.88;1.48;;;12.60;41.00;;;;;;5051175;28;20120;-66
2021/05/06 16:04:30;;;;;;;5.30;1.63;;;12.70;41.00;;;;;;5049005;28;20044;-66
2021/05/06 16:06:56;;;;;;;4.95;1.23;;;12.80;40.80;;;;;;5051037;28;20099;-66